Time;durP1;ratioP1;P1;durP2;ratioP2;P2;SDS_P1;SDS_P2;PMS_P1;PMS_P2;Temp;Humidity;BMP_temperature;BMP_pressure;BME280_temperature;BME280_humidity;BME280_pressure;Samples;Min_cycle;Max_cycle;Signal;HPM_P1;HPM_P2
2022/06/10 00:01:23;;;;;;;8.73;1.98;;;;;;;;;;5066867;28;20055;-59
2022/06/10 00:03:49;;;;;;;6.45;2.50;;;;;;;;;;5085110;28;20071;-59
2022/06/10 00:06:15;;;;;;;11.00;2.30;;;;;;;;;;5085413;28;20040;-59
2022/06/10 00:08:44;;;;;;;14.10;2.97;;;;;;;;;;5085428;28;20061;-59
2022/06/10 00:11:10;;;;;;;7.20;2.20;;;;;;;;;;5083802;28;20047;-59
2022/06/10 00:13:38;;;;;;;5.97;2.50;;;;;;;;;;5066201;28;20552;-59
2022/06/10 00:16:05;;;;;;;8.10;2.70;;;;;;;;;;5066593;28;20755;-59
2022/06/10 00:18:32;;;;;;;8.75;2.53;;;;;;;;;;5084864;28;20044;-59
2022/06/10 00:20:59;;;;;;;10.30;2.78;;;;;;;;;;5084622;28;20044;-59
2022/06/10 00:23:25;;;;;;;6.35;2.40;;;;;;;;;;5084222;28;20036;-59
2022/06/10 00:25:51;;;;;;;6.13;2.30;;;;;;;;;;5084202;28;20044;-59
2022/06/10 00:28:18;;;;;;;7.20;2.60;;;;;;;;;;5084254;28;20119;-59
2022/06/10 00:30:45;;;;;;;7.32;2.42;;;;;;;;;;5062176;28;20058;-59
2022/06/10 00:33:12;;;;;;;6.95;2.60;;;;;;;;;;5084129;28;20044;-59
2022/06/10 00:35:39;;;;;;;7.35;2.50;;;;;;;;;;5084277;28;20058;-59
2022/06/10 00:38:06;;;;;;;8.02;2.35;;;;;;;;;;5084546;28;20028;-59
2022/06/10 00:40:35;;;;;;;7.18;2.38;;;;;;;;;;5079918;28;20032;-59
2022/06/10 00:43:01;;;;;;;6.40;2.60;;;;;;;;;;5083721;28;20047;-59
2022/06/10 00:45:51;;;;;;;11.25;2.55;;;;;;;;;;5083906;28;20101;-59
2022/06/10 00:48:20;;;;;;;7.45;2.58;;;;;;;;;;5080261;28;20439;-59
2022/06/10 00:50:46;;;;;;;9.10;2.38;;;;;;;;;;5066304;28;20429;-59
2022/06/10 00:53:14;;;;;;;9.13;2.75;;;;;;;;;;5084806;28;20066;-59
2022/06/10 00:55:41;;;;;;;4.43;2.30;;;;;;;;;;5084027;28;20535;-59
2022/06/10 00:58:14;;;;;;;9.57;2.45;;;;;;;;;;5083156;28;20423;-59
2022/06/10 01:00:41;;;;;;;9.30;3.15;;;;;;;;;;5083667;28;20032;-59
2022/06/10 01:03:07;;;;;;;9.48;2.55;;;;;;;;;;5076438;22;20438;-59
2022/06/10 01:05:33;;;;;;;7.38;2.75;;;;;;;;;;5043692;28;20048;-59
2022/06/10 01:08:02;;;;;;;11.02;3.15;;;;;;;;;;5043679;28;20147;-59
2022/06/10 01:10:29;;;;;;;4.78;2.20;;;;;;;;;;5043528;28;20044;-59
2022/06/10 01:13:02;;;;;;;8.23;2.73;;;;;;;;;;5043438;28;20276;-59
2022/06/10 01:15:41;;;;;;;8.07;2.60;;;;;;;;;;5043246;28;20067;-59
2022/06/10 01:18:07;;;;;;;;;;;;;;;;;;5044602;28;20140;-59
2022/06/10 01:20:43;;;;;;;7.35;2.78;;;;;;;;;;5043639;28;19959;-59
2022/06/10 01:23:28;;;;;;;8.38;2.63;;;;;;;;;;5059346;28;20121;-59
2022/06/10 01:26:14;;;;;;;9.50;3.25;;;;;;;;;;5042419;28;20076;-59
2022/06/10 01:28:49;;;;;;;12.48;2.50;;;;;;;;;;5043646;28;20037;-59
2022/06/10 01:31:40;;;;;;;8.20;2.92;;;;;;;;;;5043533;28;20037;-59
2022/06/10 01:34:06;;;;;;;15.30;2.92;;;;;;;;;;5043544;28;20413;-59
2022/06/10 01:36:52;;;;;;;10.90;2.72;;;;;;;;;;5043413;28;20037;-59
2022/06/10 01:39:24;;;;;;;7.80;2.85;;;;;;;;;;5043165;28;20041;-59
2022/06/10 01:41:56;;;;;;;8.20;2.78;;;;;;;;;;5043167;28;20033;-59
2022/06/10 01:44:36;;;;;;;8.60;2.70;;;;;;;;;;5043420;28;20552;-59
2022/06/10 01:47:05;;;;;;;7.57;3.00;;;;;;;;;;5044012;28;20033;-59
2022/06/10 01:49:37;;;;;;;4.75;2.20;;;;;;;;;;5043761;28;20123;-59
2022/06/10 01:52:06;;;;;;;7.25;2.40;;;;;;;;;;5043946;28;20124;-59
2022/06/10 01:54:32;;;;;;;5.82;2.42;;;;;;;;;;5043238;28;20048;-59
2022/06/10 01:57:01;;;;;;;4.97;2.33;;;;;;;;;;5043465;28;20235;-59
2022/06/10 01:59:29;;;;;;;10.25;2.50;;;;;;;;;;5047279;28;20040;-59
2022/06/10 02:01:58;;;;;;;7.00;2.33;;;;;;;;;;5047580;28;20614;-59
2022/06/10 02:04:27;;;;;;;6.15;2.30;;;;;;;;;;5047368;28;20037;-59
2022/06/10 02:06:56;;;;;;;6.03;2.47;;;;;;;;;;5047482;28;20049;-59
2022/06/10 02:09:25;;;;;;;6.05;2.33;;;;;;;;;;5047203;28;20045;-59
2022/06/10 02:11:55;;;;;;;7.13;2.38;;;;;;;;;;5045318;28;20041;-59
2022/06/10 02:14:28;;;;;;;8.32;2.78;;;;;;;;;;5047320;28;20112;-59
2022/06/10 02:16:56;;;;;;;6.53;2.53;;;;;;;;;;5047245;28;20039;-59
2022/06/10 02:19:24;;;;;;;8.95;2.75;;;;;;;;;;5047125;28;20047;-58
2022/06/10 02:21:50;;;;;;;;;;;;;;;;;;5046088;28;20060;-59
2022/06/10 02:24:18;;;;;;;7.30;2.53;;;;;;;;;;5047154;28;19920;-59
2022/06/10 02:26:47;;;;;;;5.53;2.30;;;;;;;;;;5044618;28;20099;-59
2022/06/10 02:29:15;;;;;;;3.40;2.20;;;;;;;;;;5047569;28;20153;-59
2022/06/10 02:31:42;;;;;;;;;;;;;;;;;;5047080;28;20065;-59
2022/06/10 02:34:09;;;;;;;6.28;2.28;;;;;;;;;;5046849;28;19921;-59
2022/06/10 02:36:35;;;;;;;5.82;2.22;;;;;;;;;;5046564;28;20127;-59
2022/06/10 02:39:02;;;;;;;5.47;2.70;;;;;;;;;;5047186;28;20097;-59
2022/06/10 02:41:50;;;;;;;6.65;2.42;;;;;;;;;;5044543;28;20060;-59
2022/06/10 02:44:17;;;;;;;5.13;2.28;;;;;;;;;;5046841;28;20124;-59
2022/06/10 02:46:49;;;;;;;9.73;2.50;;;;;;;;;;5047119;28;20044;-59
2022/06/10 02:49:16;;;;;;;4.68;2.45;;;;;;;;;;5046792;28;20375;-59
2022/06/10 02:51:43;;;;;;;8.10;2.20;;;;;;;;;;5047024;28;20453;-59
2022/06/10 02:54:28;;;;;;;7.65;2.28;;;;;;;;;;5045892;28;20044;-59
2022/06/10 02:56:54;;;;;;;8.63;2.40;;;;;;;;;;5045803;28;20049;-59
2022/06/10 03:02:08;;;;;;;6.50;2.60;;;;;;;;;;5046503;28;20110;-59
2022/06/10 03:04:42;;;;;;;6.82;2.50;;;;;;;;;;5045531;28;20386;-59
2022/06/10 03:07:09;;;;;;;7.13;3.22;;;;;;;;;;5046565;28;20045;-59
2022/06/10 03:10:12;;;;;;;11.23;2.83;;;;;;;;;;5046024;28;20052;-59
2022/06/10 03:12:39;;;;;;;5.72;2.30;;;;;;;;;;5042521;28;20040;-59
2022/06/10 03:15:14;;;;;;;6.38;2.47;;;;;;;;;;5046143;28;20075;-59
2022/06/10 03:18:00;;;;;;;9.82;2.97;;;;;;;;;;5046012;28;20044;-59
2022/06/10 03:20:31;;;;;;;7.43;2.88;;;;;;;;;;5045443;28;20475;-59
2022/06/10 03:23:03;;;;;;;8.65;3.08;;;;;;;;;;5045590;28;20049;-59
2022/06/10 03:25:33;;;;;;;8.20;2.13;;;;;;;;;;5044844;28;20033;-59
2022/06/10 03:28:18;;;;;;;6.60;2.60;;;;;;;;;;5046084;28;20037;-59
2022/06/10 03:30:55;;;;;;;11.55;3.10;;;;;;;;;;5045995;28;20041;-59
2022/06/10 03:33:22;;;;;;;8.98;2.33;;;;;;;;;;5044972;28;20052;-59
2022/06/10 03:35:52;;;;;;;8.65;2.88;;;;;;;;;;5045563;28;20099;-59
2022/06/10 03:38:18;;;;;;;5.38;2.25;;;;;;;;;;5044348;28;20437;-59
2022/06/10 03:40:52;;;;;;;6.40;2.58;;;;;;;;;;5045222;28;20045;-59
2022/06/10 03:43:18;;;;;;;8.27;2.60;;;;;;;;;;5045289;28;20041;-59
2022/06/10 03:45:46;;;;;;;4.97;2.58;;;;;;;;;;5045652;28;20151;-59
2022/06/10 03:48:15;;;;;;;8.68;2.80;;;;;;;;;;5045295;28;20451;-59
2022/06/10 03:50:41;;;;;;;5.70;2.65;;;;;;;;;;5045230;28;20049;-59
2022/06/10 03:53:07;;;;;;;10.88;2.63;;;;;;;;;;5044007;28;20410;-59
2022/06/10 03:55:34;;;;;;;5.05;2.80;;;;;;;;;;5044306;28;20095;-59
2022/06/10 03:58:00;;;;;;;9.30;2.55;;;;;;;;;;5045078;28;20559;-59
2022/06/10 04:00:27;;;;;;;6.10;2.70;;;;;;;;;;5045333;28;20429;-59
2022/06/10 04:02:54;;;;;;;7.03;2.90;;;;;;;;;;5044810;28;20064;-59
2022/06/10 04:05:20;;;;;;;9.25;2.60;;;;;;;;;;5044642;28;20486;-59
2022/06/10 04:07:46;;;;;;;4.75;2.60;;;;;;;;;;5044634;28;20090;-58
2022/06/10 04:10:15;;;;;;;6.80;2.58;;;;;;;;;;5045607;28;20060;-59
2022/06/10 04:12:41;;;;;;;9.45;2.53;;;;;;;;;;5040811;28;20494;-59
2022/06/10 04:15:08;;;;;;;6.10;2.67;;;;;;;;;;5044709;28;20426;-59
2022/06/10 04:17:34;;;;;;;9.98;2.58;;;;;;;;;;5044966;28;20044;-59
2022/06/10 04:20:01;;;;;;;12.35;2.85;;;;;;;;;;5044387;28;20041;-59
2022/06/10 04:22:27;;;;;;;7.93;3.30;;;;;;;;;;5044596;28;20040;-59
2022/06/10 04:24:54;;;;;;;10.93;3.50;;;;;;;;;;5044656;28;20123;-59
2022/06/10 04:27:20;;;;;;;4.97;2.40;;;;;;;;;;5043565;28;20079;-59
2022/06/10 04:29:47;;;;;;;6.93;2.92;;;;;;;;;;5044853;28;20697;-59
2022/06/10 04:32:14;;;;;;;9.98;3.13;;;;;;;;;;5044361;28;20135;-58
2022/06/10 04:34:40;;;;;;;11.48;3.70;;;;;;;;;;5044611;28;20045;-59
2022/06/10 04:37:06;;;;;;;8.38;3.22;;;;;;;;;;5043963;28;20091;-59
2022/06/10 04:39:32;;;;;;;13.45;3.20;;;;;;;;;;5044242;28;20549;-59
2022/06/10 04:41:59;;;;;;;9.85;3.63;;;;;;;;;;5043805;28;20502;-59
2022/06/10 04:44:25;;;;;;;13.52;3.53;;;;;;;;;;5043978;28;20553;-59
2022/06/10 04:46:51;;;;;;;9.75;3.00;;;;;;;;;;5036447;28;20068;-59
2022/06/10 04:49:18;;;;;;;12.80;3.42;;;;;;;;;;5043562;28;20088;-59
2022/06/10 04:51:44;;;;;;;10.93;3.38;;;;;;;;;;5044618;28;20033;-59
2022/06/10 04:54:11;;;;;;;12.85;4.07;;;;;;;;;;5043619;28;20044;-59
2022/06/10 04:56:38;;;;;;;12.77;3.50;;;;;;;;;;5043338;28;20049;-59
2022/06/10 04:59:04;;;;;;;13.07;3.08;;;;;;;;;;5044369;28;20084;-58
2022/06/10 05:01:31;;;;;;;9.38;3.50;;;;;;;;;;5043590;28;20103;-59
2022/06/10 05:03:57;;;;;;;12.43;3.20;;;;;;;;;;5043329;28;20490;-59
2022/06/10 05:06:23;;;;;;;11.60;3.83;;;;;;;;;;5043383;28;20040;-58
2022/06/10 05:08:49;;;;;;;13.60;3.72;;;;;;;;;;5044388;28;20044;-58
2022/06/10 05:11:16;;;;;;;12.02;4.03;;;;;;;;;;5043511;28;20149;-57
2022/06/10 05:13:42;;;;;;;11.93;3.67;;;;;;;;;;5044342;28;20045;-57
2022/06/10 05:16:08;;;;;;;12.48;3.30;;;;;;;;;;5044080;28;20033;-57
2022/06/10 05:18:35;;;;;;;10.40;3.83;;;;;;;;;;5043504;28;20099;-57
2022/06/10 05:21:01;;;;;;;18.88;3.60;;;;;;;;;;5043952;28;20084;-56
2022/06/10 05:23:27;;;;;;;15.40;3.33;;;;;;;;;;5043439;28;20040;-57
2022/06/10 05:25:53;;;;;;;16.42;4.47;;;;;;;;;;5043519;28;20036;-57
2022/06/10 05:28:20;;;;;;;17.58;4.00;;;;;;;;;;5043754;28;20079;-57
2022/06/10 05:30:46;;;;;;;10.25;3.85;;;;;;;;;;5044283;28;20040;-60
2022/06/10 05:33:13;;;;;;;19.75;3.58;;;;;;;;;;5047134;28;20068;-59
2022/06/10 05:35:40;;;;;;;11.68;3.60;;;;;;;;;;5047394;28;20040;-59
2022/06/10 05:38:06;;;;;;;13.88;3.47;;;;;;;;;;5046347;28;20128;-60
2022/06/10 05:40:33;;;;;;;7.60;2.95;;;;;;;;;;5043793;28;20053;-59
2022/06/10 05:43:00;;;;;;;10.68;3.47;;;;;;;;;;5046341;28;20033;-59
2022/06/10 05:45:26;;;;;;;14.00;3.35;;;;;;;;;;5045886;28;20037;-60
2022/06/10 05:47:55;;;;;;;17.80;3.47;;;;;;;;;;5045959;28;20064;-60
2022/06/10 05:50:25;;;;;;;15.77;3.50;;;;;;;;;;5045907;28;20120;-59
2022/06/10 05:52:51;;;;;;;9.82;3.10;;;;;;;;;;5045981;28;20433;-60
2022/06/10 05:55:18;;;;;;;12.23;2.95;;;;;;;;;;5045658;28;20315;-59
2022/06/10 05:57:45;;;;;;;15.45;3.78;;;;;;;;;;5046959;28;20069;-60
2022/06/10 06:00:16;;;;;;;12.23;3.10;;;;;;;;;;5047475;28;20040;-59
2022/06/10 06:02:42;;;;;;;13.77;3.25;;;;;;;;;;5046942;28;20059;-60
2022/06/10 06:05:09;;;;;;;19.50;3.60;;;;;;;;;;5047272;28;20037;-59
2022/06/10 06:07:36;;;;;;;9.15;3.50;;;;;;;;;;5044777;28;20041;-59
2022/06/10 06:10:02;;;;;;;11.50;3.55;;;;;;;;;;5045856;28;20414;-60
2022/06/10 06:12:28;;;;;;;10.20;3.67;;;;;;;;;;5047028;28;20036;-59
2022/06/10 06:14:55;;;;;;;12.80;3.95;;;;;;;;;;5045454;28;20048;-60
2022/06/10 06:17:21;;;;;;;11.63;3.30;;;;;;;;;;5045631;28;20041;-60
2022/06/10 06:19:48;;;;;;;11.75;3.20;;;;;;;;;;5045497;28;20524;-60
2022/06/10 06:22:14;;;;;;;15.35;3.45;;;;;;;;;;5047213;28;20115;-60
2022/06/10 06:24:40;;;;;;;8.95;3.60;;;;;;;;;;5046501;28;20127;-60
2022/06/10 06:27:08;;;;;;;12.10;3.95;;;;;;;;;;5045805;28;20482;-60
2022/06/10 06:29:34;;;;;;;11.00;3.83;;;;;;;;;;5042557;28;20045;-59
2022/06/10 06:32:01;;;;;;;11.80;3.80;;;;;;;;;;5045831;28;20132;-60
2022/06/10 06:34:27;;;;;;;19.90;4.20;;;;;;;;;;5046049;28;20041;-60
2022/06/10 06:36:54;;;;;;;16.98;4.30;;;;;;;;;;5046710;28;20037;-60
2022/06/10 06:39:23;;;;;;;15.50;3.88;;;;;;;;;;5046263;28;20052;-60
2022/06/10 06:41:49;;;;;;;;;;;;;;;;;;5046046;28;20055;-61
2022/06/10 06:44:15;;;;;;;16.27;3.83;;;;;;;;;;5046387;28;19920;-60
2022/06/10 06:46:42;;;;;;;12.88;3.72;;;;;;;;;;5045858;28;20044;-60
2022/06/10 06:49:10;;;;;;;13.23;3.88;;;;;;;;;;5046174;28;20101;-59
2022/06/10 06:51:37;;;;;;;12.18;4.30;;;;;;;;;;5045777;28;20133;-60
2022/06/10 06:54:03;;;;;;;15.85;4.63;;;;;;;;;;5045863;28;20053;-60
2022/06/10 06:56:30;;;;;;;23.27;5.13;;;;;;;;;;5045532;28;20049;-60
2022/06/10 06:58:56;;;;;;;21.83;5.20;;;;;;;;;;5045845;28;20071;-61
2022/06/10 07:01:23;;;;;;;14.18;4.95;;;;;;;;;;5045526;28;20047;-60
2022/06/10 07:03:49;;;;;;;11.57;4.78;;;;;;;;;;5046145;28;20128;-60
2022/06/10 07:06:15;;;;;;;15.10;5.18;;;;;;;;;;5044838;28;20056;-60
2022/06/10 07:08:41;;;;;;;19.60;6.30;;;;;;;;;;5045798;28;20069;-60
2022/06/10 07:11:09;;;;;;;21.90;5.28;;;;;;;;;;5044507;28;20139;-60
2022/06/10 07:13:36;;;;;;;13.37;4.93;;;;;;;;;;5045610;28;20041;-60
2022/06/10 07:16:02;;;;;;;18.02;5.55;;;;;;;;;;5045601;28;20487;-60
2022/06/10 07:18:30;;;;;;;14.38;4.97;;;;;;;;;;5045548;28;20037;-60
2022/06/10 07:20:56;;;;;;;26.42;5.18;;;;;;;;;;5045614;28;20794;-61
2022/06/10 07:23:23;;;;;;;13.35;5.18;;;;;;;;;;5045273;28;20033;-60
2022/06/10 07:25:49;;;;;;;13.25;5.13;;;;;;;;;;5045336;28;20060;-60
2022/06/10 07:28:15;;;;;;;14.20;5.25;;;;;;;;;;5045620;28;20080;-60
2022/06/10 07:30:42;;;;;;;15.13;5.45;;;;;;;;;;5045070;28;20123;-60
2022/06/10 07:33:08;;;;;;;12.45;4.63;;;;;;;;;;5045433;28;20166;-60
2022/06/10 07:35:35;;;;;;;15.50;5.13;;;;;;;;;;5045335;28;20126;-60
2022/06/10 07:38:02;;;;;;;14.32;4.72;;;;;;;;;;5045263;28;20059;-60
2022/06/10 07:43:16;;;;;;;12.93;4.93;;;;;;;;;;5045160;28;20183;-60
2022/06/10 07:45:42;;;;;;;11.98;4.60;;;;;;;;;;5045592;28;20052;-61
2022/06/10 07:48:10;;;;;;;12.70;4.57;;;;;;;;;;5045625;28;20546;-60
2022/06/10 07:50:37;;;;;;;11.93;4.85;;;;;;;;;;5044883;28;20723;-60
2022/06/10 07:53:03;;;;;;;13.73;4.53;;;;;;;;;;5044985;28;20127;-60
2022/06/10 07:55:29;;;;;;;17.58;5.00;;;;;;;;;;5043452;28;20079;-60
2022/06/10 07:57:55;;;;;;;15.68;4.80;;;;;;;;;;5045268;28;20044;-60
2022/06/10 08:00:22;;;;;;;15.43;5.40;;;;;;;;;;5044736;28;20502;-61
2022/06/10 08:02:48;;;;;;;10.50;4.85;;;;;;;;;;5044163;28;20098;-60
2022/06/10 08:05:16;;;;;;;19.45;5.07;;;;;;;;;;5045315;28;20498;-60
2022/06/10 08:07:42;;;;;;;24.90;5.93;;;;;;;;;;5044988;28;20045;-60
2022/06/10 08:10:15;;;;;;;20.30;5.32;;;;;;;;;;5043733;28;20068;-60
2022/06/10 08:12:41;;;;;;;12.95;5.65;;;;;;;;;;5044453;28;20041;-60
2022/06/10 08:15:07;;;;;;;14.65;6.25;;;;;;;;;;5044836;28;20072;-60
2022/06/10 08:17:33;;;;;;;15.27;4.80;;;;;;;;;;5044021;28;20516;-61
2022/06/10 08:20:01;;;;;;;12.73;4.95;;;;;;;;;;5044605;28;20528;-60
2022/06/10 08:22:34;;;;;;;17.20;5.97;;;;;;;;;;5044315;28;20044;-60
2022/06/10 08:25:01;;;;;;;9.98;5.30;;;;;;;;;;5043962;28;20110;-61
2022/06/10 08:27:28;;;;;;;9.65;5.13;;;;;;;;;;5044608;28;20075;-61
2022/06/10 08:29:55;;;;;;;11.68;5.15;;;;;;;;;;5044429;28;20067;-60
2022/06/10 08:32:22;;;;;;;12.02;4.93;;;;;;;;;;5043476;28;20048;-61
2022/06/10 08:34:48;;;;;;;19.38;5.05;;;;;;;;;;5044191;28;20053;-60
2022/06/10 08:37:15;;;;;;;17.75;5.38;;;;;;;;;;5044712;28;20049;-60
2022/06/10 08:39:41;;;;;;;14.50;4.80;;;;;;;;;;5043339;28;20036;-60
2022/06/10 08:42:17;;;;;;;23.70;4.70;;;;;;;;;;5043777;28;20234;-61
2022/06/10 08:44:49;;;;;;;15.85;4.47;;;;;;;;;;5044501;28;20120;-61
2022/06/10 08:47:23;;;;;;;16.17;4.55;;;;;;;;;;5044307;28;20037;-60
2022/06/10 08:49:51;;;;;;;14.45;3.90;;;;;;;;;;5042386;28;20048;-60
2022/06/10 08:52:38;;;;;;;13.98;4.22;;;;;;;;;;5044107;28;20130;-60
2022/06/10 08:55:24;;;;;;;12.68;4.07;;;;;;;;;;5043315;28;20077;-60
2022/06/10 08:57:50;;;;;;;15.82;4.47;;;;;;;;;;5042077;28;20045;-61
2022/06/10 09:00:20;;;;;;;17.35;3.55;;;;;;;;;;5044765;28;20225;-61
2022/06/10 09:02:50;;;;;;;15.63;3.35;;;;;;;;;;5039822;28;20445;-61
2022/06/10 09:05:20;;;;;;;18.52;3.65;;;;;;;;;;5044050;28;20111;-60
2022/06/10 09:07:52;;;;;;;16.95;3.80;;;;;;;;;;5043637;28;20053;-60
2022/06/10 09:10:25;;;;;;;13.40;4.10;;;;;;;;;;5042142;28;20441;-61
2022/06/10 09:13:10;;;;;;;10.63;3.55;;;;;;;;;;5043808;28;20554;-61
2022/06/10 09:15:40;;;;;;;10.07;4.13;;;;;;;;;;5043324;28;20067;-60
2022/06/10 09:18:09;;;;;;;17.25;4.30;;;;;;;;;;5043830;28;20270;-60
2022/06/10 09:20:43;;;;;;;14.05;3.78;;;;;;;;;;5043240;28;20071;-60
2022/06/10 09:23:15;;;;;;;17.27;4.32;;;;;;;;;;5043667;28;20041;-60
2022/06/10 09:25:49;;;;;;;15.43;4.78;;;;;;;;;;5042962;28;20037;-61
2022/06/10 09:28:16;;;;;;;18.13;5.05;;;;;;;;;;5044063;28;20049;-60
2022/06/10 09:30:52;;;;;;;17.20;4.47;;;;;;;;;;5043276;28;20155;-60
2022/06/10 09:33:27;;;;;;;12.75;5.47;;;;;;;;;;5042264;28;20490;-61
2022/06/10 09:35:58;;;;;;;18.15;4.85;;;;;;;;;;5042337;28;20072;-60
2022/06/10 09:38:24;;;;;;;16.73;4.63;;;;;;;;;;5043308;28;20115;-61
2022/06/10 09:40:50;;;;;;;12.75;4.28;;;;;;;;;;5042837;28;20324;-61
2022/06/10 09:43:22;;;;;;;11.35;4.35;;;;;;;;;;5043720;28;20041;-60
2022/06/10 09:45:55;;;;;;;11.02;4.07;;;;;;;;;;5043361;28;20045;-61
2022/06/10 09:48:33;;;;;;;15.52;4.13;;;;;;;;;;5042328;28;20049;-61
2022/06/10 09:51:05;;;;;;;7.82;3.90;;;;;;;;;;5041875;28;20733;-61
2022/06/10 09:53:31;;;;;;;12.00;4.20;;;;;;;;;;5043303;28;20049;-61
2022/06/10 09:56:13;;;;;;;11.88;3.90;;;;;;;;;;5042098;28;20040;-61
2022/06/10 09:58:52;;;;;;;17.17;4.53;;;;;;;;;;5043073;28;20103;-61
2022/06/10 10:01:25;;;;;;;12.15;3.85;;;;;;;;;;5043423;28;20044;-60
2022/06/10 10:03:51;;;;;;;17.83;4.05;;;;;;;;;;5043480;28;20124;-60
2022/06/10 10:06:17;;;;;;;15.73;4.68;;;;;;;;;;5042961;28;20083;-61
2022/06/10 10:08:44;;;;;;;13.27;4.10;;;;;;;;;;5043348;28;20091;-60
2022/06/10 10:11:14;;;;;;;15.15;4.38;;;;;;;;;;5042064;28;20128;-60
2022/06/10 10:13:41;;;;;;;9.95;3.83;;;;;;;;;;5043096;28;20076;-60
2022/06/10 10:16:27;;;;;;;14.15;4.38;;;;;;;;;;5043362;28;20872;-60
2022/06/10 10:19:03;;;;;;;21.70;4.43;;;;;;;;;;5045308;28;20144;-60
2022/06/10 10:21:35;;;;;;;10.98;3.42;;;;;;;;;;5046116;28;20044;-60
2022/06/10 10:24:01;;;;;;;10.15;3.60;;;;;;;;;;5046939;28;20052;-60
2022/06/10 10:26:30;;;;;;;9.27;3.75;;;;;;;;;;5045787;28;20039;-61
2022/06/10 10:28:59;;;;;;;14.18;3.72;;;;;;;;;;5045591;28;20056;-60
2022/06/10 10:31:27;;;;;;;18.70;4.65;;;;;;;;;;5046784;28;20091;-60
2022/06/10 10:33:53;;;;;;;12.02;4.22;;;;;;;;;;5046026;28;20045;-60
2022/06/10 10:36:22;;;;;;;15.20;4.00;;;;;;;;;;5044911;28;20039;-60
2022/06/10 10:38:49;;;;;;;11.95;4.07;;;;;;;;;;5046634;28;20051;-60
2022/06/10 10:41:23;;;;;;;14.48;5.30;;;;;;;;;;5046404;28;20486;-60
2022/06/10 10:43:52;;;;;;;16.80;3.78;;;;;;;;;;5046609;28;20068;-60
2022/06/10 10:46:29;;;;;;;11.73;3.50;;;;;;;;;;5046075;28;20120;-60
2022/06/10 10:48:57;;;;;;;11.20;3.58;;;;;;;;;;5045206;28;20063;-60
2022/06/10 10:51:27;;;;;;;19.33;3.67;;;;;;;;;;5045862;28;20041;-60
2022/06/10 10:53:57;;;;;;;8.88;3.10;;;;;;;;;;5046294;28;20056;-60
2022/06/10 10:56:32;;;;;;;14.05;3.47;;;;;;;;;;5045747;28;20181;-61
2022/06/10 10:58:58;;;;;;;14.13;3.47;;;;;;;;;;5046073;28;20471;-60
2022/06/10 11:01:47;;;;;;;12.00;3.60;;;;;;;;;;5043172;28;20049;-61
2022/06/10 11:04:20;;;;;;;6.05;2.80;;;;;;;;;;5041034;28;20139;-61
2022/06/10 11:06:46;;;;;;;12.18;3.25;;;;;;;;;;5044263;28;20045;-61
2022/06/10 11:09:15;;;;;;;14.68;3.25;;;;;;;;;;5042958;28;20044;-60
2022/06/10 11:11:42;;;;;;;13.52;3.55;;;;;;;;;;5040756;28;20083;-60
2022/06/10 11:14:20;;;;;;;14.02;3.58;;;;;;;;;;5043387;28;20041;-60
2022/06/10 11:17:00;;;;;;;13.57;3.50;;;;;;;;;;5045865;28;20041;-60
2022/06/10 11:19:27;;;;;;;13.60;3.60;;;;;;;;;;5044191;28;20086;-60
2022/06/10 11:21:55;;;;;;;11.60;3.87;;;;;;;;;;5045446;28;20052;-60
2022/06/10 11:24:24;;;;;;;14.27;4.03;;;;;;;;;;5044709;28;20036;-60
2022/06/10 11:26:53;;;;;;;13.73;3.88;;;;;;;;;;5044983;28;20557;-60
2022/06/10 11:29:19;;;;;;;;;;;;;;;;;;5045899;28;20052;-60
2022/06/10 11:31:48;;;;;;;11.60;3.63;;;;;;;;;;5045939;28;20015;-60
2022/06/10 11:34:18;;;;;;;13.75;3.83;;;;;;;;;;5041848;28;20041;-60
2022/06/10 11:36:46;;;;;;;19.73;4.05;;;;;;;;;;5046051;28;20059;-60
2022/06/10 11:39:16;;;;;;;9.23;3.78;;;;;;;;;;5045264;28;20040;-60
2022/06/10 11:41:42;;;;;;;15.00;3.83;;;;;;;;;;5045071;28;20049;-60
2022/06/10 11:44:18;;;;;;;12.27;4.43;;;;;;;;;;5045341;28;20142;-60
2022/06/10 11:47:00;;;;;;;18.45;4.10;;;;;;;;;;5045518;28;20048;-60
2022/06/10 11:49:28;;;;;;;9.10;3.80;;;;;;;;;;5045086;28;20064;-60
2022/06/10 11:51:57;;;;;;;15.32;3.92;;;;;;;;;;5044201;28;20049;-60
2022/06/10 11:54:26;;;;;;;11.63;3.80;;;;;;;;;;5040529;28;20533;-60
2022/06/10 11:59:49;;;;;;;9.05;3.88;;;;;;;;;;5040937;28;20349;-60
2022/06/10 12:02:23;;;;;;;11.70;3.85;;;;;;;;;;5045076;28;20061;-60
2022/06/10 12:04:57;;;;;;;14.30;3.92;;;;;;;;;;5042009;28;20511;-60
2022/06/10 12:07:26;;;;;;;9.48;3.47;;;;;;;;;;5044658;28;20049;-60
2022/06/10 12:09:55;;;;;;;16.27;3.60;;;;;;;;;;5043955;28;20049;-60
2022/06/10 12:12:23;;;;;;;10.10;3.55;;;;;;;;;;5044848;28;20036;-60
2022/06/10 12:14:54;;;;;;;17.67;4.40;;;;;;;;;;5043379;28;20049;-60
2022/06/10 12:17:20;;;;;;;13.18;3.45;;;;;;;;;;5044098;28;20055;-60
2022/06/10 12:19:48;;;;;;;15.13;3.50;;;;;;;;;;5045159;28;20037;-61
2022/06/10 12:22:14;;;;;;;11.93;3.50;;;;;;;;;;5044349;28;20048;-62
2022/06/10 12:24:42;;;;;;;6.72;2.70;;;;;;;;;;5043612;28;20070;-62
2022/06/10 12:27:16;;;;;;;8.15;2.67;;;;;;;;;;5043267;28;20049;-61
2022/06/10 12:29:52;;;;;;;10.45;3.08;;;;;;;;;;5044116;28;20076;-62
2022/06/10 12:32:25;;;;;;;8.32;2.78;;;;;;;;;;5041803;28;20044;-62
2022/06/10 12:34:55;;;;;;;8.57;2.75;;;;;;;;;;5043977;28;20041;-62
2022/06/10 12:37:24;;;;;;;9.50;2.33;;;;;;;;;;5043805;28;20041;-62
2022/06/10 12:39:53;;;;;;;11.45;3.33;;;;;;;;;;5042854;28;20048;-61
2022/06/10 12:42:21;;;;;;;13.10;3.33;;;;;;;;;;5041902;28;20134;-62
2022/06/10 12:44:50;;;;;;;11.43;2.88;;;;;;;;;;5043716;28;20079;-62
2022/06/10 12:47:19;;;;;;;10.77;2.90;;;;;;;;;;5044126;28;20045;-62
2022/06/10 12:49:47;;;;;;;10.88;2.60;;;;;;;;;;5041249;28;20041;-62
2022/06/10 12:52:20;;;;;;;10.50;2.85;;;;;;;;;;5043058;28;20048;-62
2022/06/10 12:54:49;;;;;;;8.70;2.70;;;;;;;;;;5042477;28;20053;-62
2022/06/10 12:57:28;;;;;;;11.95;3.15;;;;;;;;;;5042733;28;20446;-62
2022/06/10 13:00:13;;;;;;;6.20;2.63;;;;;;;;;;5042221;28;20057;-62
2022/06/10 13:02:48;;;;;;;8.50;3.22;;;;;;;;;;5039308;28;20131;-62
2022/06/10 13:05:18;;;;;;;8.98;2.83;;;;;;;;;;5043399;28;20065;-62
2022/06/10 13:07:44;;;;;;;9.23;3.00;;;;;;;;;;5043413;28;20112;-61
2022/06/10 13:10:29;;;;;;;9.52;2.45;;;;;;;;;;5041721;28;20151;-62
2022/06/10 13:12:59;;;;;;;17.88;3.60;;;;;;;;;;5042793;28;20041;-63
2022/06/10 13:15:29;;;;;;;13.07;3.40;;;;;;;;;;5043431;28;20124;-62
2022/06/10 13:18:01;;;;;;;11.27;3.03;;;;;;;;;;5042768;28;20056;-62
2022/06/10 13:20:27;;;;;;;12.68;3.33;;;;;;;;;;5043274;28;20040;-62
2022/06/10 13:23:12;;;;;;;10.63;3.58;;;;;;;;;;5043869;28;20132;-63
2022/06/10 13:25:39;;;;;;;15.68;3.25;;;;;;;;;;5041335;28;20037;-62
2022/06/10 13:28:22;;;;;;;14.25;3.50;;;;;;;;;;5043600;28;20095;-63
2022/06/10 13:30:49;;;;;;;10.77;3.72;;;;;;;;;;5043389;28;20051;-62
2022/06/10 13:33:16;;;;;;;6.88;2.97;;;;;;;;;;5043582;28;20072;-63
2022/06/10 13:35:44;;;;;;;7.50;3.30;;;;;;;;;;5044078;28;20053;-62
2022/06/10 13:38:14;;;;;;;9.15;3.33;;;;;;;;;;5043941;28;20080;-62
2022/06/10 13:40:45;;;;;;;10.35;3.47;;;;;;;;;;5042622;28;20087;-62
2022/06/10 13:43:14;;;;;;;8.65;2.85;;;;;;;;;;5043321;28;20551;-62
2022/06/10 13:45:41;;;;;;;8.13;3.10;;;;;;;;;;5043259;28;20033;-63
2022/06/10 13:48:08;;;;;;;11.73;3.13;;;;;;;;;;5043381;28;20060;-64
2022/06/10 13:51:12;;;;;;;5.32;2.20;;;;;;;;;;5043033;28;20098;-62
2022/06/10 13:53:38;;;;;;;10.38;2.70;;;;;;;;;;5044477;28;20041;-62
2022/06/10 13:56:06;;;;;;;9.00;2.97;;;;;;;;;;5046636;28;20044;-62
2022/06/10 13:58:36;;;;;;;9.63;2.33;;;;;;;;;;5047126;28;20048;-62
2022/06/10 14:01:06;;;;;;;6.38;3.17;;;;;;;;;;5047148;28;20084;-62
2022/06/10 14:03:32;;;;;;;4.53;2.22;;;;;;;;;;5046146;28;20496;-62
2022/06/10 14:06:04;;;;;;;7.35;3.20;;;;;;;;;;5062079;28;20049;-61
2022/06/10 14:08:33;;;;;;;8.55;3.67;;;;;;;;;;5043996;28;20091;-61
2022/06/10 14:10:59;;;;;;;5.55;2.95;;;;;;;;;;5044802;28;20167;-61
2022/06/10 14:13:26;;;;;;;7.35;3.15;;;;;;;;;;5047303;28;20036;-61
2022/06/10 14:15:54;;;;;;;9.27;2.95;;;;;;;;;;5047153;28;20044;-60
2022/06/10 14:18:23;;;;;;;13.27;3.20;;;;;;;;;;5046020;28;20124;-61
2022/06/10 14:20:50;;;;;;;10.15;3.20;;;;;;;;;;5045757;28;20044;-61
2022/06/10 14:23:26;;;;;;;10.52;3.08;;;;;;;;;;5045877;28;20398;-59
2022/06/10 14:26:13;;;;;;;11.10;2.83;;;;;;;;;;5043664;28;20048;-60
2022/06/10 14:28:41;;;;;;;11.98;2.33;;;;;;;;;;5046610;28;20112;-61
2022/06/10 14:31:19;;;;;;;9.93;2.33;;;;;;;;;;5044554;28;20440;-61
2022/06/10 14:33:47;;;;;;;5.97;1.80;;;;;;;;;;5046413;28;20348;-60
2022/06/10 14:36:17;;;;;;;4.00;1.50;;;;;;;;;;5044366;28;20498;-61
2022/06/10 14:38:44;;;;;;;6.93;1.65;;;;;;;;;;5046506;28;20037;-60
2022/06/10 14:41:11;;;;;;;3.60;1.10;;;;;;;;;;5046488;28;20041;-61
2022/06/10 14:43:55;;;;;;;6.63;1.50;;;;;;;;;;5046554;28;20045;-61
2022/06/10 14:46:22;;;;;;;7.35;1.52;;;;;;;;;;5045958;28;20132;-61
2022/06/10 14:48:49;;;;;;;9.95;1.77;;;;;;;;;;5046266;28;20084;-61
2022/06/10 14:51:23;;;;;;;5.60;1.30;;;;;;;;;;5044520;28;20057;-60
2022/06/10 14:53:52;;;;;;;4.65;1.40;;;;;;;;;;5045755;28;20676;-61
2022/06/10 14:56:21;;;;;;;7.32;1.35;;;;;;;;;;5045948;28;20045;-60
2022/06/10 14:58:48;;;;;;;13.32;1.40;;;;;;;;;;5045952;28;20057;-60